createdAt,value
2022-08-22T00:02:13.673Z,99861.34
2022-08-22T00:03:02.258Z,99861.22
2022-08-22T00:04:48.737Z,99856.25
2022-08-22T00:07:22.984Z,99849.59
2022-08-22T00:10:02.186Z,99858.03
2022-08-22T00:12:36.845Z,99852.25
2022-08-22T00:15:16.768Z,99856.53
2022-08-22T00:18:08.186Z,99850.91
2022-08-22T00:20:42.364Z,99852.03
2022-08-22T00:23:17.363Z,99860.25
2022-08-22T00:25:49.777Z,99855.09
2022-08-22T00:28:21.073Z,99868.34
2022-08-22T00:30:56.841Z,99861.38
2022-08-22T00:33:32.865Z,99860.53
2022-08-22T00:36:25.184Z,99858.06
2022-08-22T00:39:03.864Z,99865.47
2022-08-22T00:41:50.571Z,99857.50
2022-08-22T00:44:40.259Z,99861.91
2022-08-22T00:47:27.474Z,99860.81
2022-08-22T00:50:13.855Z,99855.91
2022-08-22T00:53:08.796Z,99855.81
2022-08-22T00:55:51.245Z,99858.50
2022-08-22T00:58:54.567Z,99856.88
2022-08-22T01:01:29.632Z,99855.19
2022-08-22T01:04:22.222Z,99858.88
2022-08-22T01:07:01.809Z,99864.03
2022-08-22T01:09:44.330Z,99856.16
2022-08-22T01:12:40.525Z,99850.75
2022-08-22T01:15:11.158Z,99849.06
2022-08-22T01:17:55.710Z,99849.06
2022-08-22T01:20:52.286Z,99852.00
2022-08-22T01:23:56.241Z,99847.97
2022-08-22T01:26:57.041Z,99847.59
2022-08-22T01:29:58.224Z,99849.81
2022-08-22T01:32:59.171Z,99841.59
2022-08-22T01:35:42.087Z,99842.47
2022-08-22T01:38:49.010Z,99841.59
2022-08-22T01:41:52.990Z,99845.53
2022-08-22T01:44:38.829Z,99842.09
2022-08-22T01:47:12.796Z,99840.16
2022-08-22T01:49:45.087Z,99846.72
2022-08-22T01:52:19.627Z,99845.16
2022-08-22T01:54:54.654Z,99842.94
2022-08-22T01:57:23.997Z,99847.97
2022-08-22T01:59:55.196Z,99839.75
2022-08-22T02:02:44.108Z,99848.59
2022-08-22T02:05:21.637Z,99849.91
2022-08-22T02:07:59.242Z,99844.91
2022-08-22T02:10:44.021Z,99852.50
2022-08-22T02:13:26.145Z,99843.69
2022-08-22T02:16:04.629Z,99843.28
2022-08-22T02:18:47.013Z,99849.78
2022-08-22T02:21:21.832Z,99845.63
2022-08-22T02:23:56.636Z,99849.28
2022-08-22T02:26:29.869Z,99850.03
2022-08-22T02:29:01.657Z,99840.84
2022-08-22T02:31:39.894Z,99835.59
2022-08-22T02:34:39.640Z,99832.16
2022-08-22T02:37:15.597Z,99840.22
2022-08-22T02:39:50.420Z,99834.22
2022-08-22T02:42:24.792Z,99840.22
2022-08-22T02:44:59.813Z,99833.59
2022-08-22T02:47:30.385Z,99827.34
2022-08-22T02:50:13.031Z,99827.53
2022-08-22T02:52:55.517Z,99823.38
2022-08-22T02:55:36.061Z,99818.81
2022-08-22T02:58:08.052Z,99821.88
2022-08-22T03:00:47.316Z,99823.59
2022-08-22T03:03:24.863Z,99823.09
2022-08-22T03:06:01.842Z,99822.84
2022-08-22T03:08:32.212Z,99820.41
2022-08-22T03:11:19.343Z,99817.09
2022-08-22T03:13:54.859Z,99812.06
2022-08-22T03:16:32.167Z,99812.19
2022-08-22T03:19:08.380Z,99816.13
2022-08-22T03:21:48.284Z,99809.28
2022-08-22T03:24:24.734Z,99805.63
2022-08-22T03:27:02.732Z,99809.03
2022-08-22T03:29:34.071Z,99803.91
2022-08-22T03:32:10.373Z,99807.78
2022-08-22T03:34:38.695Z,99812.66
2022-08-22T03:37:16.517Z,99821.31
2022-08-22T03:40:00.868Z,99799.69
2022-08-22T03:43:05.714Z,99805.94
2022-08-22T03:45:55.556Z,99792.22
2022-08-22T03:48:43.860Z,99797.13
2022-08-22T03:51:23.354Z,99799.47
2022-08-22T03:54:16.162Z,99802.63
2022-08-22T03:57:14.130Z,99794.38
2022-08-22T04:00:03.053Z,99798.41
2022-08-22T04:03:13.266Z,99796.41
2022-08-22T04:06:00.673Z,99803.94
2022-08-22T04:09:03.513Z,99808.94
2022-08-22T04:11:51.886Z,99800.75
2022-08-22T04:14:43.967Z,99803.91
2022-08-22T04:17:44.157Z,99809.00
2022-08-22T04:20:27.508Z,99804.13
2022-08-22T04:23:19.369Z,99809.25
2022-08-22T04:25:52.129Z,99812.28
2022-08-22T04:28:24.239Z,99808.66
2022-08-22T04:30:57.287Z,99803.28
2022-08-22T04:33:32.120Z,99808.44
2022-08-22T04:36:09.440Z,99805.34
2022-08-22T04:38:43.218Z,99799.66
2022-08-22T04:41:14.698Z,99802.31
2022-08-22T04:43:49.950Z,99805.34
2022-08-22T04:46:26.224Z,99810.66
2022-08-22T04:49:07.144Z,99810.31
2022-08-22T04:51:39.567Z,99808.41
2022-08-22T04:54:33.493Z,99812.69
2022-08-22T04:57:15.146Z,99810.31
2022-08-22T04:59:43.566Z,99815.66
2022-08-22T05:02:20.817Z,99812.19
2022-08-22T05:04:54.275Z,99810.84
2022-08-22T05:07:25.381Z,99798.84
2022-08-22T05:09:57.334Z,99807.06
2022-08-22T05:12:33.527Z,99810.59
2022-08-22T05:15:07.495Z,99811.69
2022-08-22T05:17:39.769Z,99820.28
2022-08-22T05:20:13.064Z,99817.56
2022-08-22T05:22:45.358Z,99820.53
2022-08-22T05:25:18.358Z,99816.72
2022-08-22T05:27:50.140Z,99822.44
2022-08-22T05:30:26.323Z,99826.50
2022-08-22T05:32:58.978Z,99823.19
2022-08-22T05:35:35.016Z,99826.00
2022-08-22T05:38:05.622Z,99824.22
2022-08-22T05:40:35.618Z,99829.72
2022-08-22T05:43:07.382Z,99830.19
2022-08-22T05:45:38.016Z,99838.56
2022-08-22T05:48:09.837Z,99827.19
2022-08-22T05:50:43.136Z,99832.06
2022-08-22T05:53:14.630Z,99831.72
2022-08-22T05:55:53.343Z,99837.50
2022-08-22T05:58:43.512Z,99834.25
2022-08-22T06:01:22.266Z,99835.53
2022-08-22T06:04:00.618Z,99831.19
2022-08-22T06:06:34.199Z,99826.88
2022-08-22T06:09:13.133Z,99833.84
2022-08-22T06:11:51.629Z,99834.09
2022-08-22T06:14:39.720Z,99831.81
2022-08-22T06:17:11.775Z,99833.00
2022-08-22T06:19:43.000Z,99832.06
2022-08-22T06:22:18.727Z,99835.22
2022-08-22T06:24:48.555Z,99828.19
2022-08-22T06:27:20.605Z,99832.75
2022-08-22T06:29:51.909Z,99833.28
2022-08-22T06:32:58.170Z,99834.47
2022-08-22T06:35:17.693Z,99840.03
2022-08-22T06:37:49.149Z,99843.38
2022-08-22T06:40:18.483Z,99845.06
2022-08-22T06:42:50.359Z,99846.31
2022-08-22T06:45:22.995Z,99846.78
2022-08-22T06:48:00.217Z,99850.00
2022-08-22T06:50:31.755Z,99853.63
2022-08-22T06:53:06.713Z,99850.53
2022-08-22T06:55:36.318Z,99849.44
2022-08-22T06:58:06.900Z,99861.13
2022-08-22T07:00:36.359Z,99864.97
2022-08-22T07:03:10.905Z,99855.47
2022-08-22T07:05:42.345Z,99852.47
2022-08-22T07:08:14.242Z,99857.09
2022-08-22T07:10:43.405Z,99855.63
2022-08-22T07:13:15.841Z,99850.22
2022-08-22T07:15:44.117Z,99854.78
2022-08-22T07:18:19.755Z,99850.75
2022-08-22T07:20:50.610Z,99845.94
2022-08-22T07:23:33.300Z,99846.50
2022-08-22T07:26:16.035Z,99852.06
2022-08-22T07:28:51.186Z,99860.88
2022-08-22T07:31:34.029Z,99856.78
2022-08-22T07:34:17.682Z,99863.75
2022-08-22T07:36:50.265Z,99858.91
2022-08-22T07:39:28.604Z,99866.88
2022-08-22T07:42:08.013Z,99856.16
2022-08-22T07:44:51.618Z,99862.44
2022-08-22T07:47:26.414Z,99858.53
2022-08-22T07:49:59.681Z,99861.09
2022-08-22T07:52:31.554Z,99857.91
2022-08-22T07:55:08.896Z,99854.22
2022-08-22T07:57:41.451Z,99861.22
2022-08-22T08:00:15.784Z,99860.81
2022-08-22T08:02:47.690Z,99862.09
2022-08-22T08:05:16.224Z,99872.50
2022-08-22T08:07:45.886Z,99858.78
2022-08-22T08:10:18.623Z,99860.28
2022-08-22T08:13:01.780Z,99862.50
2022-08-22T08:15:33.546Z,99853.25
2022-08-22T08:18:05.451Z,99863.00
2022-08-22T08:20:36.228Z,99853.75
2022-08-22T08:23:05.318Z,99859.00
2022-08-22T08:25:53.869Z,99852.84
2022-08-22T08:28:37.991Z,99852.97
2022-08-22T08:31:15.400Z,99850.38
2022-08-22T08:33:48.870Z,99856.34
2022-08-22T08:36:27.621Z,99845.88
2022-08-22T08:39:01.163Z,99846.47
2022-08-22T08:42:07.306Z,99839.13
2022-08-22T08:44:56.398Z,99836.41
2022-08-22T08:47:34.147Z,99832.44
2022-08-22T08:50:24.495Z,99829.72
2022-08-22T08:53:25.700Z,99824.03
2022-08-22T08:55:58.837Z,99822.53
2022-08-22T08:58:44.157Z,99815.69
2022-08-22T09:01:44.316Z,99817.63
2022-08-22T09:04:31.550Z,99810.28
2022-08-22T09:07:30.532Z,99820.66
2022-08-22T09:10:18.969Z,99804.78
2022-08-22T09:13:12.723Z,99803.38
2022-08-22T09:16:05.303Z,99807.84
2022-08-22T09:18:49.923Z,99801.97
2022-08-22T09:21:42.983Z,99797.63
2022-08-22T09:24:46.840Z,99798.78
2022-08-22T09:27:20.199Z,99794.06
2022-08-22T09:29:54.911Z,99788.47
2022-08-22T09:32:40.138Z,99793.47
2022-08-22T09:35:25.931Z,99790.06
2022-08-22T09:38:20.839Z,99797.41
2022-08-22T09:40:54.572Z,99777.66
2022-08-22T09:43:33.520Z,99780.41
2022-08-22T09:46:14.293Z,99779.00
2022-08-22T09:48:56.402Z,99773.06
2022-08-22T09:51:34.930Z,99770.19
2022-08-22T09:54:14.717Z,99764.94
2022-08-22T09:56:53.609Z,99762.88
2022-08-22T09:59:29.583Z,99760.00
2022-08-22T10:02:15.371Z,99764.41
2022-08-22T10:04:49.406Z,99758.63
2022-08-22T10:07:33.479Z,99758.63
2022-08-22T10:10:12.554Z,99758.25
2022-08-22T10:12:53.414Z,99761.13
2022-08-22T10:15:31.060Z,99752.25
2022-08-22T10:18:10.484Z,99754.78
2022-08-22T10:20:56.645Z,99754.78
2022-08-22T10:23:30.304Z,99753.34
2022-08-22T10:26:13.236Z,99758.84
2022-08-22T10:28:56.013Z,99753.50
2022-08-22T10:31:31.187Z,99751.41
2022-08-22T10:34:10.593Z,99748.63
2022-08-22T10:36:50.115Z,99752.00
2022-08-22T10:39:23.927Z,99747.91
2022-08-22T10:42:10.447Z,99746.31
2022-08-22T10:44:45.823Z,99740.72
2022-08-22T10:47:22.217Z,99736.91
2022-08-22T10:49:54.363Z,99739.16
2022-08-22T10:52:28.297Z,99733.59
2022-08-22T10:55:01.466Z,99741.72
2022-08-22T10:57:47.376Z,99737.59
2022-08-22T11:00:31.625Z,99745.38
2022-08-22T11:03:10.731Z,99737.31
2022-08-22T11:05:43.238Z,99734.44
2022-08-22T11:08:52.126Z,99740.25
2022-08-22T11:11:40.406Z,99734.78
2022-08-22T11:14:41.764Z,99731.88
2022-08-22T11:17:31.754Z,99731.00
2022-08-22T11:20:20.561Z,99728.06
2022-08-22T11:23:12.354Z,99721.59
2022-08-22T11:25:53.919Z,99723.19
2022-08-22T11:28:39.077Z,99722.53
2022-08-22T11:31:19.734Z,99708.13
2022-08-22T11:33:53.814Z,99699.47
2022-08-22T11:36:31.457Z,99705.91
2022-08-22T11:39:22.750Z,99699.44
2022-08-22T11:41:59.358Z,99704.41
2022-08-22T11:44:32.318Z,99699.50
2022-08-22T11:47:08.640Z,99694.81
2022-08-22T11:49:49.538Z,99691.19
2022-08-22T11:52:28.934Z,99693.94
2022-08-22T11:55:16.642Z,99686.44
2022-08-22T11:57:50.659Z,99688.19
2022-08-22T12:00:34.260Z,99686.31
2022-08-22T12:03:37.013Z,99687.34
2022-08-22T12:06:14.876Z,99689.41
2022-08-22T12:09:12.826Z,99696.03
2022-08-22T12:11:49.608Z,99677.50
2022-08-22T12:14:34.509Z,99681.09
2022-08-22T12:17:22.844Z,99665.44
2022-08-22T12:20:17.476Z,99677.06
2022-08-22T12:23:02.819Z,99674.03
2022-08-22T12:26:04.969Z,99678.47
2022-08-22T12:28:47.943Z,99663.56
2022-08-22T12:31:32.372Z,99661.88
2022-08-22T12:34:07.276Z,99665.44
2022-08-22T12:37:03.990Z,99663.81
2022-08-22T12:40:08.455Z,99656.25
2022-08-22T12:42:52.840Z,99655.38
2022-08-22T12:45:36.156Z,99655.22
2022-08-22T12:48:22.365Z,99652.94
2022-08-22T12:50:55.990Z,99655.59
2022-08-22T12:53:57.448Z,99656.63
2022-08-22T12:56:39.966Z,99646.06
2022-08-22T12:59:24.367Z,99646.44
2022-08-22T13:01:55.620Z,99646.84
2022-08-22T13:04:33.135Z,99645.81
2022-08-22T13:07:09.719Z,99653.56
2022-08-22T13:09:40.922Z,99640.91
2022-08-22T13:12:22.054Z,99654.66
2022-08-22T13:14:55.063Z,99644.44
2022-08-22T13:17:25.331Z,99652.28
2022-08-22T13:20:08.079Z,99649.13
2022-08-22T13:22:39.329Z,99644.13
2022-08-22T13:25:15.341Z,99647.84
2022-08-22T13:27:56.890Z,99645.34
2022-08-22T13:30:31.713Z,99647.78
2022-08-22T13:33:05.486Z,99643.34
2022-08-22T13:35:45.616Z,99643.34
2022-08-22T13:38:26.145Z,99642.06
2022-08-22T13:40:55.420Z,99645.97
2022-08-22T13:43:28.283Z,99632.97
2022-08-22T13:45:59.256Z,99638.03
2022-08-22T13:48:32.444Z,99636.56
2022-08-22T13:51:12.949Z,99643.41
2022-08-22T13:53:49.801Z,99631.50
2022-08-22T13:56:36.151Z,99633.16
2022-08-22T13:59:07.947Z,99641.69
2022-08-22T14:01:48.121Z,99640.50
2022-08-22T14:04:34.596Z,99645.75
2022-08-22T14:07:25.474Z,99647.13
2022-08-22T14:09:58.437Z,99638.25
2022-08-22T14:12:33.387Z,99635.22
2022-08-22T14:15:23.047Z,99639.13
2022-08-22T14:17:56.528Z,99639.72
2022-08-22T14:20:33.839Z,99635.69
2022-08-22T14:23:08.661Z,99635.81
2022-08-22T14:25:42.747Z,99641.13
2022-08-22T14:28:27.532Z,99639.72
2022-08-22T14:31:02.928Z,99635.56
2022-08-22T14:33:36.613Z,99635.19
2022-08-22T14:36:17.246Z,99632.81
2022-08-22T14:38:58.606Z,99626.91
2022-08-22T14:41:52.606Z,99633.38
2022-08-22T14:44:26.349Z,99623.31
2022-08-22T14:46:57.426Z,99626.25
2022-08-22T14:49:29.823Z,99622.50
2022-08-22T14:52:03.189Z,99627.16
2022-08-22T14:54:33.629Z,99629.44
2022-08-22T14:57:04.706Z,99630.75
2022-08-22T14:59:45.173Z,99621.13
2022-08-22T15:02:18.434Z,99627.00
2022-08-22T15:04:48.877Z,99622.72
2022-08-22T15:07:24.594Z,99616.41
2022-08-22T15:09:56.091Z,99615.19
2022-08-22T15:12:28.669Z,99612.34
2022-08-22T15:14:59.327Z,99613.66
2022-08-22T15:17:38.394Z,99608.19
2022-08-22T15:20:12.968Z,99607.81
2022-08-22T15:22:45.466Z,99604.94
2022-08-22T15:25:19.069Z,99611.25
2022-08-22T15:27:49.874Z,99605.41
2022-08-22T15:30:21.225Z,99604.53
2022-08-22T15:32:49.953Z,99609.19
2022-08-22T15:35:29.999Z,99599.34
2022-08-22T15:38:00.250Z,99593.94
2022-08-22T15:40:35.517Z,99602.41
2022-08-22T15:43:22.450Z,99594.06
2022-08-22T15:45:53.816Z,99597.63
2022-08-22T15:48:31.628Z,99594.00
2022-08-22T15:51:03.334Z,99593.53
2022-08-22T15:53:53.693Z,99590.34
2022-08-22T15:56:28.444Z,99586.25
2022-08-22T15:59:20.135Z,99588.59
2022-08-22T16:01:52.985Z,99574.22
2022-08-22T16:04:34.694Z,99577.88
2022-08-22T16:07:05.396Z,99580.56
2022-08-22T16:09:43.484Z,99580.75
2022-08-22T16:12:31.027Z,99583.38
2022-08-22T16:15:01.193Z,99586.16
2022-08-22T16:17:47.169Z,99581.81
2022-08-22T16:20:56.948Z,99587.44
2022-08-22T16:23:24.660Z,99582.50
2022-08-22T16:26:10.366Z,99581.56
2022-08-22T16:28:58.360Z,99590.91
2022-08-22T16:31:30.854Z,99581.75
2022-08-22T16:34:20.164Z,99584.41
2022-08-22T16:36:50.453Z,99580.06
2022-08-22T16:39:38.353Z,99581.50
2022-08-22T16:42:25.082Z,99581.75
2022-08-22T16:44:57.316Z,99583.53
2022-08-22T16:47:41.328Z,99580.94
2022-08-22T16:50:25.832Z,99578.25
2022-08-22T16:52:58.161Z,99581.69
2022-08-22T16:56:19.536Z,99577.25
2022-08-22T16:59:19.599Z,99583.56
2022-08-22T17:02:21.005Z,99588.19
2022-08-22T17:05:02.616Z,99581.13
2022-08-22T17:07:44.350Z,99581.06
2022-08-22T17:10:34.551Z,99576.06
2022-08-22T17:13:27.546Z,99577.56
2022-08-22T17:16:13.241Z,99572.25
2022-08-22T17:18:52.403Z,99570.75
2022-08-22T17:21:26.183Z,99569.72
2022-08-22T17:24:01.472Z,99571.16
2022-08-22T17:26:41.586Z,99574.50
2022-08-22T17:29:20.520Z,99580.22
2022-08-22T17:31:55.504Z,99574.59
2022-08-22T17:34:38.792Z,99580.63
2022-08-22T17:37:16.539Z,99571.19
2022-08-22T17:39:57.945Z,99572.16
2022-08-22T17:42:57.373Z,99575.22
2022-08-22T17:45:41.524Z,99569.03
2022-08-22T17:48:16.662Z,99565.53
2022-08-22T17:50:50.581Z,99570.16
2022-08-22T17:53:31.957Z,99579.38
2022-08-22T17:56:07.526Z,99580.00
2022-08-22T17:58:49.134Z,99580.28
2022-08-22T18:01:45.188Z,99580.81
2022-08-22T18:04:25.989Z,99583.38
2022-08-22T18:07:05.181Z,99586.19
2022-08-22T18:09:39.564Z,99582.69
2022-08-22T18:12:16.691Z,99583.81
2022-08-22T18:14:52.356Z,99588.16
2022-08-22T18:17:35.888Z,99589.47
2022-08-22T18:20:11.329Z,99590.78
2022-08-22T18:22:47.196Z,99586.06
2022-08-22T18:25:33.297Z,99587.41
2022-08-22T18:28:06.396Z,99585.94
2022-08-22T18:30:39.858Z,99593.50
2022-08-22T18:33:12.726Z,99595.81
2022-08-22T18:35:49.988Z,99597.56
2022-08-22T18:38:29.351Z,99592.81
2022-08-22T18:41:06.524Z,99598.16
2022-08-22T18:43:37.944Z,99596.25
2022-08-22T18:46:29.743Z,99598.88
2022-08-22T18:49:15.137Z,99604.00
2022-08-22T18:51:44.005Z,99604.03
2022-08-22T18:54:39.528Z,99601.50
2022-08-22T18:57:30.455Z,99609.03
2022-08-22T19:00:08.907Z,99611.09
2022-08-22T19:03:08.413Z,99614.88
2022-08-22T19:06:13.596Z,99611.63
2022-08-22T19:09:20.852Z,99619.63
2022-08-22T19:11:58.819Z,99622.88
2022-08-22T19:14:45.071Z,99613.38
2022-08-22T19:17:44.222Z,99622.38
2022-08-22T19:20:46.753Z,99630.53
2022-08-22T19:23:51.131Z,99631.22
2022-08-22T19:26:43.551Z,99630.72
2022-08-22T19:29:48.527Z,99630.72
2022-08-22T19:32:49.876Z,99635.34
2022-08-22T19:35:23.326Z,99630.91
2022-08-22T19:37:58.100Z,99636.34
2022-08-22T19:40:58.430Z,99639.06
2022-08-22T19:43:32.949Z,99640.41
2022-08-22T19:46:08.157Z,99635.66
2022-08-22T19:48:45.421Z,99637.72
2022-08-22T19:51:25.828Z,99641.13
2022-08-22T19:54:17.717Z,99641.44
2022-08-22T19:57:02.827Z,99641.44
2022-08-22T19:59:50.751Z,99640.41
2022-08-22T20:02:31.998Z,99637.03
2022-08-22T20:05:15.572Z,99635.31
2022-08-22T20:07:58.329Z,99638.06
2022-08-22T20:10:35.984Z,99630.38
2022-08-22T20:13:08.538Z,99641.78
2022-08-22T20:16:09.552Z,99639.25
2022-08-22T20:19:21.210Z,99639.56
2022-08-22T20:21:58.681Z,99643.81
2022-08-22T20:24:36.544Z,99640.59
2022-08-22T20:27:14.819Z,99644.34
2022-08-22T20:29:52.820Z,99636.16
2022-08-22T20:32:25.952Z,99638.72
2022-08-22T20:35:13.363Z,99638.53
2022-08-22T20:38:06.407Z,99640.19
2022-08-22T20:44:15.930Z,99629.47
2022-08-22T20:46:55.018Z,99627.25
2022-08-22T20:49:33.156Z,99625.72
2022-08-22T20:52:10.920Z,99628.28
2022-08-22T20:54:41.796Z,99632.19
2022-08-22T20:57:15.997Z,99625.22
2022-08-22T20:59:52.846Z,99625.69
2022-08-22T21:02:25.728Z,99619.88
2022-08-22T21:05:00.350Z,99620.91
2022-08-22T21:07:29.353Z,99624.63
2022-08-22T21:10:22.250Z,99625.59
2022-08-22T21:13:08.498Z,99622.47
2022-08-22T21:15:41.634Z,99627.06
2022-08-22T21:18:10.818Z,99626.53
2022-08-22T21:20:39.975Z,99629.41
2022-08-22T21:23:11.058Z,99629.00
2022-08-22T21:25:56.451Z,99632.44
2022-08-22T21:28:34.533Z,99627.13
2022-08-22T21:31:20.875Z,99623.88
2022-08-22T21:33:50.747Z,99623.56
2022-08-22T21:36:22.730Z,99631.56
2022-08-22T21:38:53.777Z,99631.91
2022-08-22T21:41:26.542Z,99632.22
2022-08-22T21:43:54.363Z,99631.69
2022-08-22T21:46:29.592Z,99636.09
2022-08-22T21:49:02.408Z,99629.66
2022-08-22T21:51:40.691Z,99622.63
2022-08-22T21:54:39.829Z,99625.03
2022-08-22T21:57:35.745Z,99625.31
2022-08-22T22:00:08.916Z,99625.47
2022-08-22T22:02:41.925Z,99629.03
2022-08-22T22:05:14.086Z,99627.88
2022-08-22T22:07:43.518Z,99628.72
2022-08-22T22:10:16.154Z,99632.44
2022-08-22T22:12:45.575Z,99637.88
2022-08-22T22:15:17.136Z,99628.88
2022-08-22T22:17:46.388Z,99633.50
2022-08-22T22:20:16.170Z,99624.34
2022-08-22T22:22:45.904Z,99630.13
2022-08-22T22:25:39.883Z,99627.22
2022-08-22T22:28:05.330Z,99625.31
2022-08-22T22:30:33.096Z,99629.03
2022-08-22T22:33:02.027Z,99621.03
2022-08-22T22:35:29.673Z,99632.59
2022-08-22T22:37:57.628Z,99630.19
2022-08-22T22:40:26.725Z,99634.16
2022-08-22T22:42:54.385Z,99635.94
2022-08-22T22:45:22.103Z,99631.91
2022-08-22T22:47:49.636Z,99637.19
2022-08-22T22:50:18.694Z,99637.47
2022-08-22T22:52:46.265Z,99645.72
2022-08-22T22:55:24.394Z,99639.47
2022-08-22T22:57:59.187Z,99637.94
2022-08-22T23:00:30.505Z,99633.47
2022-08-22T23:02:58.652Z,99637.63
2022-08-22T23:05:28.272Z,99634.47
2022-08-22T23:07:56.055Z,99639.91
2022-08-22T23:10:23.648Z,99633.16
2022-08-22T23:12:51.471Z,99640.31
2022-08-22T23:15:19.128Z,99639.78
2022-08-22T23:17:46.950Z,99641.25
2022-08-22T23:20:14.522Z,99640.69
2022-08-22T23:22:45.228Z,99639.22
2022-08-22T23:25:12.874Z,99645.25
2022-08-22T23:27:40.479Z,99639.28
2022-08-22T23:30:10.386Z,99644.25
2022-08-22T23:32:38.649Z,99644.53
2022-08-22T23:35:07.198Z,99637.44
2022-08-22T23:37:35.080Z,99637.34
2022-08-22T23:40:07.227Z,99643.97
2022-08-22T23:42:34.979Z,99637.72
2022-08-22T23:45:02.633Z,99638.78
2022-08-22T23:47:30.236Z,99632.94
2022-08-22T23:49:57.801Z,99637.41
2022-08-22T23:52:26.493Z,99637.06
2022-08-22T23:54:55.846Z,99641.59
2022-08-22T23:57:27.379Z,99642.75
2022-08-22T23:59:57.945Z,99648.47
